• Join FlightAware (Why Join?)
  • Login
  • US Flag 
08:21AM EDT


 

Airport Tracker/Info


-or-


 

Live Flight TrackerFlight Track Log ✈ DAL268 ✈ 25-Aug-2013 ✈ KJFK - LLBG / TLV

Flight Track Log - Related Links

Times and Time Zones

All times are in EDT time to prevent confusion due to time zone crossing. See the DAL268 flight status page for this flight to view local times or setup timezone preferences in your user account.

Time Position Orientation Groundspeed Altitude Reporting Facility
EDT Latitude Longitude Course Direction KTS MPH feet Rate Location/Type
11:52PM 40.6370 -73.7800 North  Level FlightAware
11:59PM 40.5851 -73.3905 108° East  Level FlightAware Approximate
12:00AM 40.5649 -73.2142 97° East  Level FlightAware Approximate
12:01AM 40.5500 -73.0320 90° East  Level FlightAware Approximate
12:02AM 40.5813 -72.8583 72° East  Level FlightAware Approximate
12:03AM 40.6333 -72.6891 90° East  Level FlightAware Approximate
12:10AM 40.6440 -73.7690 217° Southwest 80 92  Level FlightAware
12:10AM 40.6330 -73.7770 209° Southwest 150 173 660 Level FlightAware
12:11AM 40.6130 -73.7920 210° Southwest 167 192 600 1,440 Climbing FlightAware
12:11AM 40.5990 -73.8010 206° Southwest 173 199 1,200 1,200 Climbing FlightAware
12:11AM 40.5850 -73.8100 206° Southwest 194 223 1,400 900 Climbing FlightAware
12:12AM 40.5650 -73.8220 205° Southwest 225 259 1,800 1,200 Climbing FlightAware
12:12AM 40.5560 -73.8230 185° South 232 267 2,000 780 Climbing FlightAware
12:12AM 40.5240 -73.8120 165° South 266 306 2,300 780 Climbing FlightAware
12:13AM 40.5160 -73.8050 146° Southeast 273 314 2,500 1,200 Climbing FlightAware
12:13AM 40.5060 -73.7900 131° Southeast 284 327 2,700 1,200 Climbing FlightAware
12:13AM 40.5000 -73.7770 121° Southeast 290 334 2,900 1,560 Climbing FlightAware
12:13AM 40.4926 -73.7463 108° East 301 346 3,400 1,680 Climbing FlightAware ADS-B
12:13AM 40.4922 -73.7409 96° East 302 348 3,500 1,980 Climbing FlightAware ADS-B
12:13AM 40.4922 -73.7299 90° East 304 350 3,700 1,560 Climbing FlightAware ADS-B
12:13AM 40.4939 -73.7134 82° East 306 352 3,900 1,980 Climbing FlightAware ADS-B
12:14AM 40.5008 -73.6869 71° East 307 353 4,500 2,040 Climbing FlightAware ADS-B
12:14AM 40.5099 -73.6634 63° Northeast 310 357 4,900 1,800 Climbing FlightAware ADS-B
12:14AM 40.5167 -73.6422 67° East 317 365 5,300 1,860 Climbing FlightAware ADS-B
12:14AM 40.5214 -73.6239 71° East 319 367 5,600 2,220 Climbing FlightAware ADS-B
12:15AM 40.5260 -73.5994 76° East 319 367 6,200 2,040 Climbing FlightAware ADS-B
12:15AM 40.5279 -73.5822 82° East 320 368 6,400 1,500 Climbing FlightAware ADS-B
12:15AM 40.5288 -73.5687 85° East 318 366 6,600 1,500 Climbing FlightAware ADS-B
12:15AM 40.5303 -73.5337 87° East 321 369 7,000 1,800 Climbing FlightAware ADS-B
12:15AM 40.5314 -73.5025 87° East 322 371 7,600 2,220 Climbing FlightAware ADS-B
12:16AM 40.5328 -73.4708 87° East 327 376 8,200 2,040 Climbing FlightAware ADS-B
12:16AM 40.5345 -73.4391 86° East 329 379 8,700 1,860 Climbing FlightAware ADS-B
12:16AM 40.5362 -73.4091 86° East 331 381 9,200 2,100 Climbing FlightAware ADS-B
12:16AM 40.5380 -73.3770 86° East 333 383 9,800 1,560 Climbing FlightAware ADS-B
12:17AM 40.5417 -73.3127 86° East 350 403 10,400 1,020 Climbing FlightAware ADS-B
12:17AM 40.5487 -73.2449 82° East 373 429 10,900 960 Climbing FlightAware ADS-B
12:18AM 40.5578 -73.1731 81° East 395 455 11,400 1,080 Climbing FlightAware ADS-B
12:18AM 40.5663 -73.0999 81° East 416 479 12,000 1,140 Climbing FlightAware ADS-B
12:19AM 40.5753 -73.0201 82° East 435 501 12,600 1,680 Climbing FlightAware ADS-B
12:20AM 40.5848 -72.9357 82° East 438 504 13,800 2,220 Climbing FlightAware ADS-B
12:20AM 40.5946 -72.8510 81° East 443 510 15,000 2,040 Climbing FlightAware ADS-B
12:21AM 40.6042 -72.7679 81° East 449 517 16,000 1,920 Climbing FlightAware ADS-B
12:21AM 40.6137 -72.6836 82° East 454 522 17,000 1,860 Climbing FlightAware ADS-B
12:22AM 40.6231 -72.6013 81° East 460 529 17,900 1,800 Climbing FlightAware ADS-B
12:22AM 40.6326 -72.5175 81° East 465 535 18,800 1,620 Climbing FlightAware ADS-B
12:23AM 40.6422 -72.4304 82° East 471 542 19,600 1,560 Climbing FlightAware ADS-B
12:23AM 40.6518 -72.3447 82° East 477 549 20,400 1,560 Climbing FlightAware ADS-B
12:24AM 40.6614 -72.2581 82° East 481 554 21,200 1,440 Climbing FlightAware ADS-B
12:24AM 40.6712 -72.1678 82° East 487 560 21,900 1,320 Climbing FlightAware ADS-B
12:25AM 40.6809 -72.0791 82° East 492 566 22,600 1,380 Climbing FlightAware ADS-B
12:26AM 40.6989 -71.9150 82° East 498 573 23,900 1,200 Climbing FlightAware ADS-B
12:26AM 40.7120 -71.7910 82° East 503 579 24,700 540 Climbing FlightAware
12:27AM 40.7230 -71.6880 82° East 503 579 24,700  Level FlightAware
12:28AM 40.7330 -71.5950 82° East 503 579 24,700  Level FlightAware
12:28AM 40.7430 -71.5020 82° East 503 579 24,700  Level FlightAware
12:29AM 40.7520 -71.4140 82° East 503 579 24,700 2,940 Level FlightAware
12:29AM 40.7680 -71.2450 83° East 28,600 4,440 Climbing FlightAware
12:30AM 40.7880 -71.1220 78° East 497 572 29,700 1,440 Climbing FlightAware
12:30AM 40.8170 -71.0220 69° East 516 594 30,400 900 Climbing FlightAware
12:31AM 40.8400 -70.9500 67° East 492 566 30,700 660 Climbing FlightAware
12:32AM 40.8920 -70.7900 67° East 490 564 31,400 960 Climbing FlightAware
12:33AM 40.9240 -70.6890 67° East 489 563 32,300 720 Climbing FlightAware
12:33AM 40.9550 -70.5980 66° East 489 563 32,300  Level FlightAware
12:34AM 40.9840 -70.5120 66° East 489 563 32,300  Level FlightAware
12:34AM 41.0120 -70.4280 66° East 489 563 32,300  Level FlightAware
12:35AM 41.0400 -70.3450 66° East 489 563 32,300  Level FlightAware
12:36AM 41.0680 -70.2610 66° East 489 563 32,300  Level FlightAware
12:36AM 41.0960 -70.1770 66° East 489 563 32,300 360 Level FlightAware
12:37AM 41.1717 -69.9169 66° East 478 550 33,000 300 Climbing Boston Center
12:38AM 41.2242 -69.7492 67° East 483 556 33,000  Level Boston Center
12:39AM 41.2742 -69.5758 69° East 483 556 33,000  Level Boston Center
12:45AM 41.5510 -68.6860 69° East 33,000  Level FlightAware
12:48AM 41.7090 -68.1560 68° East 482 555 33,000  Level FlightAware
12:48AM 41.7370 -68.0640 68° East 482 555 33,000  Level FlightAware
12:49AM 41.7630 -67.9790 68° East 482 555 33,000  Level FlightAware
12:50AM 41.7890 -67.8920 68° East 482 555 33,000  Level FlightAware
12:50AM 41.8140 -67.8070 68° East 482 555 33,000  Level FlightAware
12:51AM 41.8400 -67.7220 68° East 482 555 33,000  Level FlightAware
12:51AM 41.8660 -67.6370 68° East 482 555 33,000  Level FlightAware
12:52AM 41.8910 -67.5520 68° East 482 555 33,000  Level FlightAware
12:53AM 41.9430 -67.3500 71° East 480 552 33,000  Level FlightAware
12:53AM 41.9690 -67.2600 69° East 480 552 33,000  Level FlightAware
12:54AM 41.9930 -67.1750 69° East 480 552 33,000  Level FlightAware
12:54AM 42.0180 -67.0890 69° East 480 552 33,000  Level FlightAware
12:55AM 42.0420 -67.0040 69° East 480 552 33,000  Level FlightAware
12:56AM 42.0830 -66.8580 69° East 33,000  Level FlightAware
12:57AM 42.1510 -66.6150 69° East 33,000  Level FlightAware
12:58AM 42.1880 -66.4800 70° East 479 551 33,000  Level FlightAware
12:58AM 42.2110 -66.3920 71° East 479 551 33,000  Level FlightAware
01:00AM 42.2700 -66.1820 69° East 479 551 33,000  Level FlightAware
01:00AM 42.2970 -66.0830 70° East 477 549 33,000  Level FlightAware
01:01AM 42.3200 -65.9970 70° East 477 549 33,000  Level FlightAware
01:01AM 42.3550 -65.8690 70° East 475 547 33,000  Level FlightAware
01:02AM 42.3820 -65.7690 70° East 474 545 33,000  Level FlightAware
01:03AM 42.4140 -65.6490 70° East 473 544 33,000  Level FlightAware
01:03AM 42.4450 -65.5330 70° East 472 543 33,000  Level FlightAware
01:04AM 42.4790 -65.4060 70° East 470 541 33,000  Level FlightAware
01:05AM 42.5010 -65.3230 70° East 470 541 33,000  Level FlightAware
01:05AM 42.5250 -65.2280 71° East 470 541 33,000  Level FlightAware
01:06AM 42.5530 -65.1230 70° East 470 541 33,000  Level FlightAware
01:06AM 42.5770 -65.0310 70° East 470 541 33,000  Level FlightAware
01:07AM 42.6020 -64.9370 70° East 470 541 33,000  Level FlightAware
01:08AM 42.6270 -64.8380 71° East 470 541 33,000  Level FlightAware
01:08AM 42.6640 -64.6940 71° East 471 542 33,000  Level FlightAware
01:09AM 42.6940 -64.5770 71° East 471 542 33,000  Level FlightAware
01:10AM 42.7170 -64.4880 71° East 471 542 33,000  Level FlightAware
01:10AM 42.7430 -64.3870 71° East 471 542 33,000  Level FlightAware
01:11AM 42.7650 -64.2980 71° East 470 541 33,000  Level FlightAware
01:12AM 42.7950 -64.1780 71° East 470 541 33,000  Level FlightAware
01:12AM 42.8220 -64.0690 71° East 469 540 33,000  Level FlightAware
01:13AM 42.8510 -63.9550 71° East 468 539 33,000  Level FlightAware
01:13AM 42.8730 -63.8630 72° East 467 537 33,000  Level FlightAware
01:14AM 42.9040 -63.7380 71° East 465 535 33,000  Level FlightAware
01:15AM 42.9280 -63.6440 71° East 465 535 33,000  Level FlightAware
01:15AM 42.9520 -63.5440 72° East 464 534 33,000  Level FlightAware
01:16AM 42.9770 -63.4410 72° East 463 533 33,000  Level FlightAware
01:17AM 43.0020 -63.3390 71° East 463 533 33,000  Level FlightAware
01:17AM 43.0340 -63.2030 72° East 461 531 33,000  Level FlightAware
01:18AM 43.0620 -63.0870 72° East 461 531 33,000  Level FlightAware
01:19AM 43.0970 -62.9440 71° East 459 528 33,000  Level FlightAware
01:20AM 43.1280 -62.8150 72° East 459 528 33,000  Level FlightAware
01:20AM 43.1480 -62.7290 72° East 456 525 33,000  Level FlightAware
01:21AM 43.1690 -62.6360 73° East 455 524 33,000  Level FlightAware
01:22AM 43.1930 -62.5380 71° East 454 522 33,000  Level FlightAware
01:22AM 43.2200 -62.4200 73° East 453 521 33,000  Level FlightAware
01:23AM 43.2450 -62.3110 72° East 453 521 33,000  Level FlightAware
01:23AM 43.2680 -62.2150 72° East 452 520 33,000  Level FlightAware
01:24AM 43.2960 -62.0920 73° East 452 520 33,000  Level FlightAware
01:25AM 43.3110 -62.0240 73° East 451 519 33,000  Level FlightAware
01:25AM 43.3400 -61.8960 73° East 452 520 33,000  Level FlightAware
01:26AM 43.3630 -61.7940 73° East 453 521 33,000  Level FlightAware
01:27AM 43.3850 -61.7010 72° East 453 521 33,000  Level FlightAware
01:27AM 43.4140 -61.5680 73° East 455 524 33,000  Level FlightAware
01:28AM 43.4340 -61.4770 73° East 457 526 33,000  Level FlightAware
01:29AM 43.4570 -61.3770 72° East 459 528 33,000  Level FlightAware
01:29AM 43.4770 -61.2840 73° East 459 528 33,000  Level FlightAware
01:30AM 43.5120 -61.1270 73° East 462 532 33,000  Level FlightAware
01:31AM 43.5320 -61.0350 73° East 465 535 33,000  Level FlightAware
01:32AM 43.5670 -60.8750 73° East 465 535 33,000  Level FlightAware
01:32AM 43.5860 -60.7880 73° East 465 535 33,000  Level FlightAware
01:33AM 43.6060 -60.6990 73° East 465 535 33,000  Level FlightAware
01:33AM 43.6250 -60.6120 73° East 465 535 33,000  Level FlightAware
01:34AM 43.6440 -60.5250 73° East 465 535 33,000  Level FlightAware
01:35AM 43.6840 -60.3220 75° East 477 549 33,000  Level FlightAware
01:36AM 43.7170 -60.1730 73° East 478 550 33,000  Level FlightAware
01:36AM 43.7370 -60.0830 73° East 478 550 33,000  Level FlightAware
01:37AM 43.7560 -59.9930 74° East 478 550 33,000  Level FlightAware
01:37AM 43.7760 -59.9040 73° East 478 550 33,000  Level FlightAware
01:38AM 43.7960 -59.8140 73° East 478 550 33,000  Level FlightAware
01:39AM 43.8160 -59.7240 73° East 478 550 33,000  Level FlightAware
01:39AM 43.8360 -59.6350 73° East 478 550 33,000  Level FlightAware
01:40AM 43.8550 -59.5450 74° East 478 550 33,000  Level FlightAware
01:40AM 43.8760 -59.4530 72° East 478 550 33,000  Level FlightAware
01:41AM 43.8950 -59.3630 74° East 478 550 33,000  Level FlightAware
01:42AM 43.9150 -59.2730 73° East 478 550 33,000  Level FlightAware
01:42AM 43.9350 -59.1830 73° East 478 550 33,000  Level FlightAware
01:43AM 43.9550 -59.0910 73° East 478 550 33,000  Level FlightAware
01:43AM 43.9750 -59.0010 73° East 478 550 33,000  Level FlightAware
01:44AM 44.0340 -58.5940 78° East 502 578 33,000  Level FlightAware
01:45AM 44.0550 -58.4970 73° East 502 578 33,000  Level FlightAware
01:46AM 44.0740 -58.4010 75° East 502 578 33,000  Level FlightAware
01:46AM 44.1020 -58.2380 76° East 514 592 33,000  Level FlightAware
01:47AM 44.1240 -58.1190 76° East 514 592 33,000  Level FlightAware
01:47AM 44.1430 -58.0210 75° East 514 592 33,000  Level FlightAware
01:48AM 44.1620 -57.9240 75° East 514 592 33,000  Level FlightAware
01:49AM 44.1810 -57.8260 75° East 514 592 33,000  Level FlightAware
01:49AM 44.1990 -57.7270 76° East 514 592 33,000  Level FlightAware
01:50AM 44.2360 -57.5160 76° East 531 611 33,000  Level FlightAware
01:50AM 44.2580 -57.4030 75° East 531 611 33,000  Level FlightAware
01:51AM 44.2830 -57.2550 77° East 538 619 33,000  Level FlightAware
01:52AM 44.3130 -57.0890 76° East 542 624 33,000  Level FlightAware
01:53AM 44.3310 -56.9850 76° East 542 624 33,000  Level FlightAware
01:53AM 44.3500 -56.8810 76° East 542 624 33,000  Level FlightAware
01:54AM 44.3680 -56.7770 76° East 542 624 33,000  Level FlightAware
01:54AM 44.3870 -56.6700 76° East 542 624 33,000  Level FlightAware
01:55AM 44.4060 -56.5650 76° East 542 624 33,000  Level FlightAware
01:56AM 44.4240 -56.4610 76° East 542 624 33,000  Level FlightAware
01:56AM 44.4430 -56.3570 76° East 542 624 33,000  Level FlightAware
01:57AM 44.4620 -56.2530 76° East 542 624 33,000  Level FlightAware
01:57AM 44.4800 -56.1480 76° East 542 624 33,000  Level FlightAware
01:58AM 44.4990 -56.0410 76° East 542 624 33,000  Level FlightAware
01:59AM 44.5180 -55.9370 76° East 542 624 33,000  Level FlightAware
01:59AM 44.5360 -55.8320 76° East 542 624 33,000  Level FlightAware
02:00AM 44.5550 -55.7280 76° East 542 624 33,000  Level FlightAware
02:00AM 44.5730 -55.6230 76° East 542 624 33,000  Level FlightAware
02:01AM 44.5920 -55.5190 76° East 542 624 33,000  Level FlightAware
02:02AM 44.5667 -54.9667 76° East 580 667 33,000  Level Moncton Center
02:03AM 44.6000 -54.7500 78° East 580 667 33,000  Level Moncton Center
02:04AM 44.6167 -54.5167 84° East 590 679 33,000  Level Moncton Center
02:05AM 44.6500 -54.3000 78° East 570 656 33,000  Level Moncton Center
02:06AM 44.6667 -54.0833 84° East 580 667 33,000  Level Moncton Center
02:07AM 44.6833 -53.8500 84° East 570 656 33,000  Level Moncton Center
02:08AM 44.7000 -53.6333 84° East 560 644 33,000  Level Moncton Center
02:09AM 44.7333 -53.4167 78° East 560 644 33,000  Level Moncton Center
02:10AM 44.7333 -53.2000 90° East 560 644 33,000  Level Moncton Center
02:11AM 44.7667 -52.9667 79° East 560 644 33,000  Level Moncton Center
02:12AM 44.7833 -52.7667 83° East 560 644 33,000  Level Moncton Center
02:13AM 44.8000 -52.5333 84° East 560 644 33,000  Level Moncton Center
02:14AM 44.8167 -52.3167 84° East 560 644 33,000  Level Moncton Center
02:15AM 44.8333 -52.1333 83° East 550 633 33,000  Level Moncton Center
02:16AM 44.8500 -51.9167 84° East 550 633 33,000  Level Moncton Center
02:17AM 44.8667 -51.7000 84° East 550 633 33,000  Level Moncton Center
02:18AM 44.8833 -51.4833 84° East 550 633 33,000  Level Moncton Center
02:19AM 44.9000 -51.2667 84° East 550 633 33,000  Level Moncton Center
02:20AM 44.9167 -51.0500 84° East 550 633 33,000  Level Gander Center
02:21AM 44.9167 -50.8333 90° East 540 621 33,000  Level Gander Center
02:22AM 44.9333 -50.6500 83° East 550 633 33,000  Level Gander Center
02:23AM 44.9500 -50.4000 85° East 540 621 33,000  Level Gander Center
02:24AM 44.9667 -50.2167 83° East 550 633 33,000  Level Gander Center
02:25AM 44.9833 -50.0000 84° East 560 644 33,000  Level Gander Center
02:26AM 45.0167 -49.7667 78° East 550 633 33,000  Level Gander Center
02:27AM 45.0667 -49.6000 67° East 550 633 33,000  Level Gander Center
02:28AM 45.1167 -49.3667 73° East 570 656 33,000  Level Gander Center
02:29AM 45.1667 -49.1667 70° East 590 679 33,000  Level Gander Center
02:30AM 45.2333 -48.9667 65° Northeast 550 633 33,000  Level Gander Center
02:31AM 45.2667 -48.7667 77° East 550 633 33,000  Level Gander Center
02:32AM 45.3167 -48.5667 70° East 550 633 33,000  Level Gander Center
02:33AM 45.3667 -48.3333 73° East 560 644 33,000  Level Gander Center
02:34AM 45.4167 -48.1333 70° East 560 644 33,000  Level Gander Center
02:35AM 45.4500 -47.9333 77° East 550 633 33,000  Level Gander Center
02:36AM 45.5167 -47.7167 66° East 550 633 33,000  Level Gander Center
02:37AM 45.5667 -47.4833 73° East 570 656 33,000  Level Gander Center
02:39AM 45.6425 -47.1731 72° East  Level FlightAware Approximate
02:46AM 45.9406 -45.8098 72° East  Level FlightAware Approximate
02:47AM 45.9818 -45.6139 73° East  Level FlightAware Approximate
02:48AM 46.0228 -45.4177 73° East  Level FlightAware Approximate
02:49AM 46.0634 -45.2212 73° East  Level FlightAware Approximate
02:50AM 46.1036 -45.0244 73° East  Level FlightAware Approximate
02:51AM 46.1435 -44.8273 74° East  Level FlightAware Approximate
02:52AM 46.1831 -44.6299 74° East  Level FlightAware Approximate
02:53AM 46.2223 -44.4323 74° East  Level FlightAware Approximate
02:54AM 46.2612 -44.2344 74° East  Level FlightAware Approximate
02:55AM 46.2998 -44.0362 74° East  Level FlightAware Approximate
02:56AM 46.3380 -43.8377 74° East  Level FlightAware Approximate
02:57AM 46.3758 -43.6389 74° East  Level FlightAware Approximate
02:58AM 46.4133 -43.4398 75° East  Level FlightAware Approximate
02:59AM 46.4505 -43.2405 75° East  Level FlightAware Approximate
03:00AM 46.4874 -43.0410 75° East  Level FlightAware Approximate
03:01AM 46.5238 -42.8411 75° East  Level FlightAware Approximate
03:02AM 46.5600 -42.6410 75° East  Level FlightAware Approximate
03:03AM 46.5957 -42.4406 75° East  Level FlightAware Approximate
03:04AM 46.6312 -42.2399 76° East  Level FlightAware Approximate
03:05AM 46.6662 -42.0390 76° East  Level FlightAware Approximate
03:06AM 46.7010 -41.8379 76° East  Level FlightAware Approximate
03:07AM 46.7354 -41.6364 76° East  Level FlightAware Approximate
03:08AM 46.7694 -41.4347 76° East  Level FlightAware Approximate
03:09AM 46.8030 -41.2328 76° East  Level FlightAware Approximate
03:10AM 46.8363 -41.0306 76° East  Level FlightAware Approximate
03:11AM 46.8693 -40.8282 77° East  Level FlightAware Approximate
03:12AM 46.9019 -40.6255 77° East  Level FlightAware Approximate
03:13AM 46.9342 -40.4226 77° East  Level FlightAware Approximate
03:14AM 46.9660 -40.2194 77° East  Level FlightAware Approximate
03:15AM 46.9978 -40.0141 77° East  Level FlightAware Approximate
03:16AM 47.0084 -39.8043 86° East  Level FlightAware Approximate
03:17AM 47.0170 -39.5941 86° East  Level FlightAware Approximate
03:18AM 47.0252 -39.3838 87° East  Level FlightAware Approximate
03:19AM 47.0331 -39.1735 87° East  Level FlightAware Approximate
03:20AM 47.0405 -38.9631 87° East  Level FlightAware Approximate
03:21AM 47.0476 -38.7527 87° East  Level FlightAware Approximate
03:22AM 47.0543 -38.5422 87° East  Level FlightAware Approximate
03:23AM 47.0606 -38.3316 87° East  Level FlightAware Approximate
03:24AM 47.0665 -38.1210 88° East  Level FlightAware Approximate
03:25AM 47.0721 -37.9104 88° East  Level FlightAware Approximate
03:26AM 47.0772 -37.6997 88° East  Level FlightAware Approximate
03:27AM 47.0820 -37.4889 88° East  Level FlightAware Approximate
03:28AM 47.0863 -37.2782 88° East  Level FlightAware Approximate
03:29AM 47.0903 -37.0674 88° East  Level FlightAware Approximate
03:30AM 47.0939 -36.8565 88° East  Level FlightAware Approximate
03:31AM 47.0971 -36.6457 89° East  Level FlightAware Approximate
03:32AM 47.1000 -36.4348 89° East  Level FlightAware Approximate
03:33AM 47.1024 -36.2239 89° East  Level FlightAware Approximate
03:34AM 47.1045 -36.0130 89° East  Level FlightAware Approximate
03:35AM 47.1061 -35.8020 89° East  Level FlightAware Approximate
03:36AM 47.1074 -35.5911 89° East  Level FlightAware Approximate
03:37AM 47.1083 -35.3801 90° East  Level FlightAware Approximate
03:38AM 47.1088 -35.1692 90° East  Level FlightAware Approximate
03:39AM 47.1089 -34.9582 90° East  Level FlightAware Approximate
03:40AM 47.1087 -34.7472 90° East  Level FlightAware Approximate
03:41AM 47.1080 -34.5363 90° East  Level FlightAware Approximate
03:42AM 47.1070 -34.3253 90° East  Level FlightAware Approximate
03:43AM 47.1055 -34.1144 90° East  Level FlightAware Approximate
03:44AM 47.1037 -33.9035 91° East  Level FlightAware Approximate
03:45AM 47.1015 -33.6926 91° East  Level FlightAware Approximate
03:46AM 47.0989 -33.4817 91° East  Level FlightAware Approximate
03:47AM 47.0959 -33.2708 91° East  Level FlightAware Approximate
03:48AM 47.0926 -33.0600 91° East  Level FlightAware Approximate
03:49AM 47.0888 -32.8491 91° East  Level FlightAware Approximate
03:50AM 47.0847 -32.6383 92° East  Level FlightAware Approximate
03:51AM 47.0801 -32.4276 92° East  Level FlightAware Approximate
03:52AM 47.0752 -32.2169 92° East  Level FlightAware Approximate
03:53AM 47.0699 -32.0062 92° East  Level FlightAware Approximate
03:54AM 47.0642 -31.7956 92° East  Level FlightAware Approximate
03:55AM 47.0582 -31.5850 92° East  Level FlightAware Approximate
03:56AM 47.0517 -31.3744 93° East  Level FlightAware Approximate
03:57AM 47.0448 -31.1639 93° East  Level FlightAware Approximate
03:58AM 47.0376 -30.9535 93° East  Level FlightAware Approximate
03:59AM 47.0300 -30.7432 93° East  Level FlightAware Approximate
04:00AM 47.0220 -30.5328 93° East  Level FlightAware Approximate
04:01AM 47.0136 -30.3226 93° East  Level FlightAware Approximate
04:02AM 47.0048 -30.1124 93° East  Level FlightAware Approximate
04:03AM 46.9944 -29.9024 95° East  Level FlightAware Approximate
04:04AM 46.9822 -29.6927 95° East  Level FlightAware Approximate
04:05AM 46.9695 -29.4831 95° East  Level FlightAware Approximate
04:06AM 46.9565 -29.2739 95° East  Level FlightAware Approximate
04:07AM 46.9431 -29.0649 95° East  Level FlightAware Approximate
04:08AM 46.9293 -28.8559 95° East  Level FlightAware Approximate
04:09AM 46.9152 -28.6471 96° East  Level FlightAware Approximate
04:10AM 46.9006 -28.4384 96° East  Level FlightAware Approximate
04:11AM 46.8857 -28.2297 96° East  Level FlightAware Approximate
04:12AM 46.8704 -28.0212 96° East  Level FlightAware Approximate
04:13AM 46.8548 -27.8129 96° East  Level FlightAware Approximate
04:14AM 46.8387 -27.6046 96° East  Level FlightAware Approximate
04:15AM 46.8223 -27.3965 97° East  Level FlightAware Approximate
04:16AM 46.8055 -27.1885 97° East  Level FlightAware Approximate
04:17AM 46.7883 -26.9806 97° East  Level FlightAware Approximate
04:18AM 46.7707 -26.7729 97° East  Level FlightAware Approximate
04:19AM 46.7528 -26.5653 97° East  Level FlightAware Approximate
04:20AM 46.7345 -26.3578 97° East  Level FlightAware Approximate
04:21AM 46.7158 -26.1505 97° East  Level FlightAware Approximate
04:22AM 46.6968 -25.9433 98° East  Level FlightAware Approximate
04:23AM 46.6773 -25.7363 98° East  Level FlightAware Approximate
04:24AM 46.6575 -25.5294 98° East  Level FlightAware Approximate
04:25AM 46.6374 -25.3227 98° East  Level FlightAware Approximate
04:26AM 46.6168 -25.1162 98° East  Level FlightAware Approximate
04:27AM 46.5959 -24.9098 98° East  Level FlightAware Approximate
04:28AM 46.5748 -24.7035 98° East  Level FlightAware Approximate
04:29AM 46.5534 -24.4973 99° East  Level FlightAware Approximate
04:30AM 46.5315 -24.2914 99° East  Level FlightAware Approximate
04:31AM 46.5093 -24.0856 99° East  Level FlightAware Approximate
04:32AM 46.4867 -23.8800 99° East  Level FlightAware Approximate
04:33AM 46.4639 -23.6745 99° East  Level FlightAware Approximate
04:34AM 46.4412 -23.4691 99° East  Level FlightAware Approximate
04:35AM 46.4182 -23.2638 99° East  Level FlightAware Approximate
04:36AM 46.3949 -23.0587 99° East  Level FlightAware Approximate
04:37AM 46.3711 -22.8538 99° East  Level FlightAware Approximate
04:38AM 46.3470 -22.6490 100° East  Level FlightAware Approximate
04:39AM 46.3226 -22.4445 100° East  Level FlightAware Approximate
04:40AM 46.2977 -22.2401 100° East  Level FlightAware Approximate
04:41AM 46.2725 -22.0359 100° East  Level FlightAware Approximate
04:42AM 46.2470 -21.8319 100° East  Level FlightAware Approximate
04:43AM 46.2211 -21.6282 100° East  Level FlightAware Approximate
04:44AM 46.1948 -21.4245 100° East  Level FlightAware Approximate
04:45AM 46.1681 -21.2211 101° East  Level FlightAware Approximate
04:46AM 46.1411 -21.0179 101° East  Level FlightAware Approximate
04:47AM 46.1138 -20.8149 101° East  Level FlightAware Approximate
04:48AM 46.0860 -20.6121 101° East  Level FlightAware Approximate
04:49AM 46.0579 -20.4095 101° East  Level FlightAware Approximate
04:50AM 46.0295 -20.2071 101° East  Level FlightAware Approximate
04:51AM 46.0007 -20.0049 102° East  Level FlightAware Approximate
04:52AM 45.9650 -19.8062 104° East  Level FlightAware Approximate
04:53AM 45.9287 -19.6068 105° East  Level FlightAware Approximate
04:54AM 45.8919 -19.4077 105° East  Level FlightAware Approximate
04:55AM 45.8549 -19.2088 105° East  Level FlightAware Approximate
04:56AM 45.8175 -19.0102 105° East  Level FlightAware Approximate
04:57AM 45.7797 -18.8118 105° East  Level FlightAware Approximate
04:58AM 45.7416 -18.6138 105° East  Level FlightAware Approximate
04:59AM 45.7032 -18.4160 105° East  Level FlightAware Approximate
05:00AM 45.6645 -18.2185 106° East  Level FlightAware Approximate
05:01AM 45.6253 -18.0212 106° East  Level FlightAware Approximate
05:02AM 45.5859 -17.8242 106° East  Level FlightAware Approximate
05:03AM 45.5461 -17.6275 106° East  Level FlightAware Approximate
05:04AM 45.5060 -17.4311 106° East  Level FlightAware Approximate
05:05AM 45.4658 -17.2349 106° East  Level FlightAware Approximate
05:06AM 45.4253 -17.0389 106° East  Level FlightAware Approximate
05:07AM 45.3844 -16.8432 107° East  Level FlightAware Approximate
05:08AM 45.3431 -16.6478 107° East  Level FlightAware Approximate
05:09AM 45.3016 -16.4527 107° East  Level FlightAware Approximate
05:10AM 45.2597 -16.2579 107° East  Level FlightAware Approximate
05:11AM 45.2175 -16.0634 107° East  Level FlightAware Approximate
05:12AM 45.1749 -15.8692 107° East  Level FlightAware Approximate
05:13AM 45.1320 -15.6752 107° East  Level FlightAware Approximate
05:14AM 45.0888 -15.4816 107° East  Level FlightAware Approximate
05:15AM 45.0453 -15.2882 108° East  Level FlightAware Approximate
05:16AM 45.0014 -15.0951 108° East  Level FlightAware Approximate
05:17AM 44.9573 -14.9024 108° East  Level FlightAware Approximate
05:18AM 44.9128 -14.7099 108° East  Level FlightAware Approximate
05:19AM 44.8679 -14.5177 108° East  Level FlightAware Approximate
05:20AM 44.8228 -14.3258 108° East  Level FlightAware Approximate
05:21AM 44.7773 -14.1343 108° East  Level FlightAware Approximate
05:22AM 44.7315 -13.9430 109° East  Level FlightAware Approximate
05:23AM 44.6854 -13.7520 109° East  Level FlightAware Approximate
05:24AM 44.6390 -13.5614 109° East  Level FlightAware Approximate
05:25AM 44.5922 -13.3710 109° East  Level FlightAware Approximate
05:26AM 44.5453 -13.1813 109° East  Level FlightAware Approximate
05:27AM 44.4975 -12.9922 114° Southeast  Level FlightAware Approximate
05:28AM 44.4393 -12.8090 114° Southeast  Level FlightAware Approximate
05:28AM 44.2860 -12.3310 114° Southeast 518 596 33,000  Level FlightAware
05:28AM 44.2540 -12.2310 114° Southeast 515 593 33,800 720 Climbing FlightAware
05:29AM 44.2100 -12.0920 114° Southeast 516 594 34,000 120 Climbing FlightAware
05:30AM 44.1680 -11.9690 115° Southeast 512 589 34,000  Level FlightAware
05:30AM 44.1340 -11.8650 114° Southeast 510 587 34,000  Level FlightAware
05:31AM 44.1000 -11.7600 114° Southeast 510 587 34,000  Level FlightAware
05:31AM 44.0650 -11.6560 115° Southeast 510 587 34,000  Level FlightAware
05:32AM 44.0310 -11.5520 114° Southeast 511 588 34,000  Level FlightAware
05:32AM 43.9960 -11.4480 115° Southeast 512 589 34,000  Level FlightAware
05:33AM 43.9630 -11.3500 115° Southeast 511 588 34,000  Level FlightAware
05:34AM 43.9230 -11.2310 115° Southeast 510 587 34,000  Level FlightAware
05:34AM 43.8930 -11.1420 115° Southeast 510 587 34,000  Level FlightAware
05:35AM 43.8580 -11.0390 115° Southeast 510 587 34,000  Level FlightAware
05:35AM 43.8180 -10.9210 115° Southeast 510 587 34,000  Level FlightAware
05:36AM 43.7880 -10.8330 115° Southeast 509 586 34,000  Level FlightAware
05:37AM 43.7520 -10.7300 116° Southeast 509 586 34,000  Level FlightAware
05:37AM 43.7170 -10.6270 115° Southeast 508 585 34,000  Level FlightAware
05:38AM 43.6820 -10.5250 115° Southeast 508 585 34,000  Level FlightAware
05:38AM 43.6460 -10.4220 116° Southeast 508 585 34,000  Level FlightAware
05:39AM 43.6110 -10.3200 115° Southeast 509 586 34,000  Level FlightAware
05:39AM 43.5750 -10.2180 116° Southeast 509 586 34,000  Level FlightAware
05:40AM 43.5390 -10.1150 116° Southeast 510 587 34,000  Level FlightAware
05:41AM 43.5030 -10.0130 116° Southeast 512 589 34,000  Level FlightAware
05:41AM 43.4670 -9.9100 116° Southeast 512 589 34,000  Level FlightAware
05:42AM 43.4250 -9.7930 116° Southeast 512 589 34,000  Level FlightAware
05:42AM 43.3940 -9.7060 116° Southeast 513 590 34,000  Level FlightAware
05:43AM 43.3450 -9.5680 116° Southeast 512 589 34,000  Level FlightAware
05:44AM 43.3140 -9.4810 116° Southeast 512 589 34,000  Level FlightAware
05:44AM 43.2770 -9.3790 116° Southeast 513 590 34,000  Level FlightAware
05:45AM 43.2400 -9.2770 116° Southeast 514 592 34,000  Level FlightAware
05:45AM 43.1980 -9.1600 116° Southeast 515 593 34,000  Level FlightAware
05:46AM 43.1660 -9.0720 116° Southeast 516 594 34,000  Level FlightAware
05:47AM 43.1290 -8.9730 117° Southeast 517 595 34,000  Level FlightAware
05:47AM 43.0910 -8.8680 116° Southeast 519 597 34,000  Level FlightAware
05:48AM 43.0530 -8.7650 117° Southeast 519 597 34,000  Level FlightAware
05:48AM 43.0150 -8.6620 117° Southeast 520 598 34,000  Level FlightAware
05:49AM 42.9770 -8.5600 117° Southeast 521 600 34,000  Level FlightAware
05:50AM 42.9370 -8.4400 114° Southeast 517 595 34,000  Level FlightAware
05:50AM 42.9220 -8.3490 103° East 513 590 34,000  Level FlightAware
05:51AM 42.9140 -8.2460 96° East 514 592 34,000  Level FlightAware
05:51AM 42.9070 -8.1100 94° East 514 592 34,000  Level FlightAware
05:52AM 42.9010 -8.0130 95° East 514 592 34,000  Level FlightAware
05:52AM 42.8930 -7.8780 95° East 516 594 34,000  Level FlightAware
05:53AM 42.8850 -7.7640 95° East 517 595 34,000  Level FlightAware
05:54AM 42.8780 -7.6640 95° East 517 595 34,000  Level FlightAware
05:54AM 42.8710 -7.5540 95° East 518 596 34,000  Level FlightAware
05:55AM 42.8620 -7.4330 96° East 520 598 34,000  Level FlightAware
05:55AM 42.8550 -7.3290 95° East 521 600 34,000  Level FlightAware
05:56AM 42.8470 -7.2110 95° East 523 602 34,000  Level FlightAware
05:57AM 42.8380 -7.0830 95° East 525 604 34,000  Level FlightAware
05:57AM 42.8290 -6.9710 96° East 527 606 34,000  Level FlightAware
05:58AM 42.8210 -6.8690 96° East 528 608 34,000  Level FlightAware
05:58AM 42.8110 -6.7330 96° East 528 608 34,000  Level FlightAware
05:59AM 42.8030 -6.6200 95° East 528 608 34,000  Level FlightAware
05:59AM 42.7940 -6.5080 96° East 528 608 34,000  Level FlightAware
06:00AM 42.7850 -6.3890 96° East 531 611 34,000  Level FlightAware
06:01AM 42.7770 -6.2900 96° East 532 612 34,000  Level FlightAware
06:01AM 42.7670 -6.1700 96° East 533 613 34,000  Level FlightAware
06:02AM 42.7570 -6.0330 96° East 534 615 34,000  Level FlightAware
06:02AM 42.7480 -5.9330 97° East 535 616 34,000  Level FlightAware
06:03AM 42.7380 -5.8160 97° East 537 618 34,000  Level FlightAware
06:04AM 42.7270 -5.6810 96° East 537 618 34,000  Level FlightAware
06:04AM 42.7180 -5.5810 97° East 539 620 34,000  Level FlightAware
06:05AM 42.7080 -5.4630 97° East 540 621 34,000  Level FlightAware
06:05AM 42.6960 -5.3290 97° East 540 621 34,000  Level FlightAware
06:06AM 42.6880 -5.2320 96° East 538 619 34,000  Level FlightAware
06:06AM 42.6770 -5.1110 97° East 535 616 34,000  Level FlightAware
06:07AM 42.6660 -4.9880 97° East 533 613 34,000  Level FlightAware
06:08AM 42.6560 -4.8820 97° East 531 611 34,000  Level FlightAware
06:08AM 42.6450 -4.7670 97° East 532 612 34,000  Level FlightAware
06:09AM 42.6330 -4.6380 97° East 531 611 34,000  Level FlightAware
06:09AM 42.6240 -4.5450 97° East 532 612 34,000  Level FlightAware
06:10AM 42.6130 -4.4190 97° East 531 611 34,000  Level FlightAware
06:10AM 42.6010 -4.3040 98° East 529 609 34,000  Level FlightAware
06:11AM 42.5890 -4.1790 97° East 527 606 34,000  Level FlightAware
06:12AM 42.5790 -4.0750 97° East 528 608 34,000  Level FlightAware
06:12AM 42.5660 -3.9430 98° East 527 606 34,000  Level FlightAware
06:13AM 42.5560 -3.8450 98° East 527 606 34,000  Level FlightAware
06:13AM 42.5450 -3.7370 98° East 527 606 34,000  Level FlightAware
06:14AM 42.5320 -3.6160 98° East 527 606 34,000  Level FlightAware
06:15AM 42.5200 -3.5020 98° East 526 605 34,000  Level FlightAware
06:15AM 42.5060 -3.3720 98° East 527 606 34,000  Level FlightAware
06:16AM 42.4950 -3.2610 98° East 527 606 34,000  Level FlightAware
06:16AM 42.4840 -3.1590 98° East 529 609 34,000  Level FlightAware
06:17AM 42.4700 -3.0310 98° East 531 611 34,000  Level FlightAware
06:18AM 42.4530 -2.8970 100° East 533 613 34,000  Level FlightAware
06:18AM 42.4330 -2.7830 103° East 533 613 34,000  Level FlightAware
06:19AM 42.4130 -2.6840 105° East 534 615 34,000  Level FlightAware
06:19AM 42.3890 -2.5680 106° East 534 615 34,000  Level FlightAware
06:20AM 42.3670 -2.4600 105° East 534 615 34,000  Level FlightAware
06:21AM 42.3410 -2.3350 106° East 533 613 34,000  Level FlightAware
06:21AM 42.3180 -2.2290 106° East 533 613 34,000  Level FlightAware
06:22AM 42.2900 -2.0950 106° East 534 615 34,000  Level FlightAware
06:22AM 42.2640 -1.9760 106° East 535 616 34,000  Level FlightAware
06:23AM 42.2420 -1.8730 106° East 536 617 34,000  Level FlightAware
06:24AM 42.2170 -1.7540 106° East 538 619 34,000  Level FlightAware
06:24AM 42.1920 -1.6380 106° East 540 621 34,000  Level FlightAware
06:25AM 42.1670 -1.5250 107° East 542 624 34,000  Level FlightAware
06:25AM 42.1420 -1.4120 107° East 543 625 34,000  Level FlightAware
06:26AM 42.1180 -1.2980 106° East 545 627 34,000  Level FlightAware
06:26AM 42.0910 -1.1810 107° East 547 629 34,000  Level FlightAware
06:27AM 42.0640 -1.0600 107° East 549 632 34,000  Level FlightAware
06:28AM 42.0410 -0.9520 106° East 552 635 34,000  Level FlightAware
06:28AM 42.0170 -0.8470 107° East 551 634 34,000  Level FlightAware
06:29AM 41.9880 -0.7150 106° East 553 636 34,000  Level FlightAware
06:29AM 41.9640 -0.6100 107° East 553 636 34,000  Level FlightAware
06:30AM 41.9360 -0.4890 107° East 554 638 34,000  Level FlightAware
06:31AM 41.9080 -0.3710 108° East 554 638 34,000  Level FlightAware
06:31AM 41.8850 -0.2660 106° East 554 638 34,000  Level FlightAware
06:32AM 41.8570 -0.1470 107° East 554 638 34,000  Level FlightAware
06:32AM 41.8290 -0.0260 107° East 555 639 34,000  Level FlightAware
06:33AM 41.8030 0.0860 107° East 554 638 34,000  Level FlightAware
06:33AM 41.7780 0.1930 107° East 552 635 34,000  Level FlightAware
06:34AM 41.7490 0.3130 108° East 549 632 34,000  Level FlightAware
06:35AM 41.7230 0.4230 108° East 548 631 34,000  Level FlightAware
06:35AM 41.6980 0.5300 107° East 548 631 34,000  Level FlightAware
06:36AM 41.6690 0.6490 108° East 546 628 34,000  Level FlightAware
06:36AM 41.6410 0.7610 108° East 543 625 34,000  Level FlightAware
06:37AM 41.6110 0.8750 109° East 543 625 34,000  Level FlightAware
06:38AM 41.5840 0.9760 110° East 541 623 34,000  Level FlightAware
06:38AM 41.5540 1.0890 109° East 540 621 34,000  Level FlightAware
06:39AM 41.5250 1.2060 108° East 542 624 34,000  Level FlightAware
06:39AM 41.4990 1.3200 107° East 541 623 34,000  Level FlightAware
06:40AM 41.4750 1.4260 107° East 541 623 34,000  Level FlightAware
06:40AM 41.4490 1.5380 107° East 541 623 34,000  Level FlightAware
06:41AM 41.4220 1.6550 107° East 540 621 34,000  Level FlightAware
06:42AM 41.3960 1.7590 108° East 539 620 34,000  Level FlightAware
06:42AM 41.3700 1.8630 108° East 538 619 34,000  Level FlightAware
06:43AM 41.3440 1.9630 109° East 539 620 34,000  Level FlightAware
06:43AM 41.3130 2.0890 108° East 541 623 34,000  Level FlightAware
06:44AM 41.2900 2.2020 105° East 545 627 34,000  Level FlightAware
06:45AM 41.2700 2.3260 102° East 545 627 34,000  Level FlightAware
06:45AM 41.2540 2.4280 102° East 546 628 34,000  Level FlightAware
06:46AM 41.2340 2.5490 102° East 547 629 34,000  Level FlightAware
06:46AM 41.2160 2.6610 102° East 546 628 34,000  Level FlightAware
06:47AM 41.1950 2.7820 103° East 548 631 34,000  Level FlightAware
06:47AM 41.1770 2.8870 103° East 546 628 34,000  Level FlightAware
06:48AM 41.1570 3.0010 103° East 545 627 34,000 240 Level FlightAware
06:49AM 41.1390 3.1090 102° East 547 629 34,300 1,080 Climbing FlightAware
06:49AM 41.1180 3.2290 103° East 544 626 35,300 1,320 Climbing FlightAware
06:50AM 41.0970 3.3460 103° East 542 624 36,000 540 Climbing FlightAware
06:50AM 41.0780 3.4550 103° East 540 621 36,000  Level FlightAware
06:51AM 41.0560 3.5800 103° East 538 619 36,000  Level FlightAware
06:52AM 41.0360 3.6920 103° East 536 617 36,000  Level FlightAware
06:52AM 41.0120 3.8200 104° East 535 616 36,000  Level FlightAware
06:53AM 40.9930 3.9310 103° East 533 613 36,000  Level FlightAware
06:53AM 40.9740 4.0320 104° East 531 611 36,000  Level FlightAware
06:54AM 40.9530 4.1520 103° East 531 611 36,000  Level FlightAware
06:55AM 40.9320 4.2660 104° East 531 611 36,000  Level FlightAware
06:55AM 40.9130 4.3640 104° East 532 612 36,000  Level FlightAware
06:56AM 40.8920 4.4800 103° East 532 612 36,000  Level FlightAware
06:56AM 40.8740 4.5780 104° East 534 615 36,000  Level FlightAware
06:57AM 40.8550 4.7000 102° East 538 619 36,000  Level FlightAware
06:58AM 40.8400 4.8100 100° East 538 619 36,000  Level FlightAware
06:58AM 40.8270 4.9100 100° East 538 619 36,000  Level FlightAware
06:59AM 40.8140 5.0090 100° East 538 619 36,000  Level FlightAware
06:59AM 40.8000 5.1110 100° East 538 619 36,000  Level FlightAware
07:00AM 40.8190 5.2960 82° East 36,000  Level FlightAware
07:03AM 40.7514 5.7519 101° East  Level Estimated
07:04AM 40.7232 5.9377 101° East  Level Estimated
07:05AM 40.6948 6.1234 101° East  Level Estimated
07:06AM 40.6661 6.3089 101° East  Level Estimated
07:07AM 40.6371 6.4943 102° East  Level Estimated
07:08AM 40.6077 6.6795 102° East  Level Estimated
07:09AM 40.5781 6.8645 102° East  Level Estimated
07:10AM 40.5482 7.0493 102° East  Level Estimated
07:10AM 40.6980 7.3000 102° East 556 640 36,000  Level FlightAware
07:11AM 40.6880 7.4340 96° East 556 640 36,000  Level FlightAware
07:11AM 40.6790 7.5750 95° East 556 640 36,000  Level FlightAware
07:12AM 40.6680 7.7220 96° East 559 643 36,000  Level FlightAware
07:13AM 40.6590 7.8470 95° East 559 643 36,000  Level FlightAware
07:13AM 40.6710 7.9680 83° East 561 646 36,000 300 Level FlightAware
07:14AM 40.6990 8.0750 71° East 561 646 36,400 840 Climbing FlightAware
07:14AM 40.7300 8.1980 72° East 561 646 37,000 480 Climbing FlightAware
07:15AM 40.7550 8.2940 71° East 560 644 37,000  Level FlightAware
07:15AM 40.7870 8.4170 71° East 558 642 37,000  Level FlightAware
07:16AM 40.8110 8.5170 72° East 558 642 37,000  Level FlightAware
07:17AM 40.8270 8.6340 80° East 559 643 37,000  Level FlightAware
07:17AM 40.8330 8.7570 86° East 556 640 37,000  Level FlightAware
07:18AM 40.8380 8.8750 87° East 553 636 37,000  Level FlightAware
07:18AM 40.8430 8.9930 87° East 551 634 37,000  Level FlightAware
07:19AM 40.8470 9.1100 87° East 549 632 37,000  Level FlightAware
07:19AM 40.8510 9.2270 87° East 546 628 37,000  Level FlightAware
07:20AM 40.8540 9.3430 88° East 542 624 37,000  Level FlightAware
07:21AM 40.8580 9.4750 88° East 540 621 37,000  Level FlightAware
07:21AM 40.8620 9.6060 88° East 540 621 37,000  Level FlightAware
07:22AM 40.8650 9.7220 88° East 544 626 37,000  Level FlightAware
07:22AM 40.8680 9.8210 88° East 545 627 37,000  Level FlightAware
07:23AM 40.8710 9.9380 88° East 545 627 37,000  Level FlightAware
07:24AM 40.8750 10.0700 88° East 544 626 37,000  Level FlightAware
07:24AM 40.8780 10.1870 88° East 544 626 37,000  Level FlightAware
07:25AM 40.8800 10.2890 88° East 543 625 37,000  Level FlightAware
07:25AM 40.8830 10.4180 88° East 542 624 37,000  Level FlightAware
07:26AM 40.8850 10.5240 89° East 541 623 37,000  Level FlightAware
07:27AM 40.8880 10.6530 88° East 541 623 37,000  Level FlightAware
07:27AM 40.8900 10.7610 89° East 540 621 37,000  Level FlightAware
07:28AM 40.8920 10.8760 89° East 540 621 37,000  Level FlightAware
07:28AM 40.8950 10.9880 88° East 539 620 37,000  Level FlightAware
07:29AM 40.8970 11.1100 89° East 538 619 37,000  Level FlightAware
07:30AM 40.8980 11.2280 89° East 537 618 37,000  Level FlightAware
07:30AM 40.9000 11.3330 89° East 537 618 37,000  Level FlightAware
07:31AM 40.9010 11.4570 89° East 537 618 37,000  Level FlightAware
07:31AM 40.8870 11.5890 98° East 531 611 37,000  Level FlightAware
07:32AM 40.8570 11.6950 110° East 529 609 37,000  Level FlightAware
07:33AM 40.8260 11.7970 112° Southeast 528 608 37,000  Level FlightAware
07:33AM 40.7920 11.9040 113° Southeast 529 609 37,000  Level FlightAware
07:34AM 40.7580 12.0100 113° Southeast 526 605 37,000  Level FlightAware
07:34AM 40.7120 12.0930 126° Southeast 517 595 37,000  Level FlightAware
07:35AM 40.6600 12.1790 129° Southeast 517 595 37,000  Level FlightAware
07:36AM 40.6060 12.2710 128° Southeast 517 595 37,000  Level FlightAware
07:36AM 40.5590 12.3580 125° Southeast 520 598 37,000  Level FlightAware
07:37AM 40.5160 12.4450 123° Southeast 520 598 37,000  Level FlightAware
07:37AM 40.4720 12.5470 120° Southeast 523 602 37,000  Level FlightAware
07:38AM 40.4360 12.6580 113° Southeast 525 604 37,000  Level FlightAware
07:39AM 40.4000 12.7730 112° Southeast 527 606 37,000  Level FlightAware
07:39AM 40.3660 12.8830 112° Southeast 528 608 37,000  Level FlightAware
07:40AM 40.3350 12.9840 112° Southeast 528 608 37,000  Level FlightAware
07:40AM 40.3030 13.0910 111° Southeast 529 609 37,000  Level FlightAware
07:41AM 40.2700 13.1980 112° Southeast 529 609 37,000  Level FlightAware
07:41AM 40.2370 13.3050 112° Southeast 530 610 37,000  Level FlightAware
07:42AM 40.2080 13.3970 112° Southeast 531 611 37,000  Level FlightAware
07:43AM 40.1750 13.5080 111° Southeast 532 612 37,000  Level FlightAware
07:43AM 40.1470 13.6000 112° Southeast 531 611 37,000  Level FlightAware
07:44AM 40.1160 13.6950 113° Southeast 531 611 37,000  Level FlightAware
07:44AM 40.0860 13.7930 112° Southeast 531 611 37,000  Level FlightAware
07:45AM 40.0530 13.9000 112° Southeast 531 611 37,000  Level FlightAware
07:45AM 40.0170 14.0120 113° Southeast 532 612 37,000  Level FlightAware
07:46AM 39.9880 14.1070 112° Southeast 532 612 37,000  Level FlightAware
07:47AM 39.9540 14.2110 113° Southeast 533 613 37,000  Level FlightAware
07:47AM 39.9210 14.3180 112° Southeast 533 613 37,000  Level FlightAware
07:48AM 39.8900 14.4160 112° Southeast 532 612 37,000  Level FlightAware
07:48AM 39.8560 14.5220 113° Southeast 532 612 37,000  Level FlightAware
07:49AM 39.8220 14.6250 113° Southeast 532 612 37,000  Level FlightAware
07:49AM 39.7900 14.7260 112° Southeast 532 612 37,000  Level FlightAware
07:50AM 39.7540 14.8340 113° Southeast 531 611 37,000  Level FlightAware
07:51AM 39.7240 14.9280 113° Southeast 530 610 37,000  Level FlightAware
07:51AM 39.6910 15.0310 113° Southeast 531 611 37,000  Level FlightAware
07:52AM 39.6550 15.1420 113° Southeast 531 611 37,000  Level FlightAware
07:52AM 39.6200 15.2480 113° Southeast 530 610 37,000  Level FlightAware
07:53AM 39.5920 15.3320 113° Southeast 529 609 37,000  Level FlightAware
07:54AM 39.5590 15.4310 113° Southeast 528 608 37,000  Level FlightAware
07:54AM 39.5220 15.5410 114° Southeast 527 606 37,000  Level FlightAware
07:55AM 39.4850 15.6550 113° Southeast 528 608 37,000  Level FlightAware
07:55AM 39.4530 15.7600 112° Southeast 528 608 37,000  Level FlightAware
07:56AM 39.4290 15.8470 110° East 529 609 37,000  Level FlightAware
07:57AM 39.3960 15.9690 109° East 529 609 37,000  Level FlightAware
07:57AM 39.3680 16.0700 110° East 528 608 37,000  Level FlightAware
07:58AM 39.3420 16.1650 109° East 526 605 37,000  Level FlightAware
07:58AM 39.3130 16.2710 109° East 525 604 37,000  Level FlightAware
07:59AM 39.2820 16.3830 110° East 522 601 37,000  Level FlightAware
07:59AM 39.2560 16.4760 110° East 520 598 37,000  Level FlightAware
08:00AM 39.2250 16.5870 110° East 517 595 37,000  Level FlightAware
08:01AM 39.2000 16.6770 110° East 516 594 37,000  Level FlightAware
08:01AM 39.1700 16.7840 110° East 516 594 37,000  Level FlightAware
08:02AM 39.1400 16.8880 110° East 519 597 37,000  Level FlightAware
08:02AM 39.1120 16.9900 109° East 520 598 37,000  Level FlightAware
08:03AM 39.0840 17.0850 111° Southeast 519 597 37,000  Level FlightAware
08:03AM 39.0540 17.1900 110° East 519 597 37,000  Level FlightAware
08:04AM 39.0330 17.2650 110° East 519 597 37,000  Level FlightAware
08:05AM 39.0030 17.3690 110° East 519 597 37,000  Level FlightAware
08:05AM 38.9730 17.4700 111° Southeast 519 597 37,000  Level FlightAware
08:06AM 38.9410 17.5830 110° East 519 597 37,000  Level FlightAware
08:06AM 38.9140 17.6720 111° Southeast 519 597 37,000  Level FlightAware
08:07AM 38.8840 17.7790 110° East 520 598 37,000  Level FlightAware
08:07AM 38.8530 17.8830 111° Southeast 521 600 37,000  Level FlightAware
08:08AM 38.8280 17.9700 110° East 521 600 37,000  Level FlightAware
08:09AM 38.7950 18.0790 111° Southeast 521 600 37,000  Level FlightAware
08:09AM 38.7650 18.1810 111° Southeast 521 600 37,000  Level FlightAware
08:10AM 38.7330 18.2870 111° Southeast 522 601 37,000  Level FlightAware
08:10AM 38.7070 18.3770 110° East 522 601 37,000  Level FlightAware
08:11AM 38.6730 18.4890 111° Southeast 523 602 37,000  Level FlightAware
08:12AM 38.6460 18.5790 111° Southeast 523 602 37,000  Level FlightAware
08:12AM 38.6130 18.6910 111° Southeast 523 602 37,000  Level FlightAware
08:13AM 38.5830 18.7890 111° Southeast 524 603 37,000  Level FlightAware
08:13AM 38.5530 18.8850 112° Southeast 524 603 37,000  Level FlightAware
08:14AM 38.5270 18.9680 112° Southeast 525 604 37,000  Level FlightAware
08:15AM 38.4920 19.0970 109° East 527 606 37,000  Level FlightAware
08:15AM 38.4600 19.2180 109° East 528 608 37,000  Level FlightAware
08:16AM 38.4320 19.3310 108° East 527 606 37,000  Level FlightAware
08:16AM 38.4050 19.4340 108° East 528 608 37,000  Level FlightAware
08:17AM 38.3780 19.5310 110° East 529 609 37,000  Level FlightAware
08:18AM 38.3500 19.6400 108° East 528 608 37,000  Level FlightAware
08:18AM 38.3220 19.7400 110° East 528 608 37,000  Level FlightAware
08:19AM 38.2900 19.8600 109° East 529 609 37,000  Level FlightAware
08:19AM 38.2690 19.9370 109° East 529 609 37,000  Level FlightAware
08:20AM 38.2380 20.0480 110° East 530 610 37,000  Level FlightAware
08:20AM 38.2100 20.1540 109° East 530 610 37,000  Level FlightAware
08:21AM 38.1820 20.2540 110° East 531 611 37,000  Level FlightAware
08:22AM 38.1530 20.3600 109° East 531 611 37,000  Level FlightAware
08:22AM 38.1190 20.4770 110° East 530 610 37,000  Level FlightAware
08:23AM 38.0900 20.5630 113° Southeast 530 610 37,000  Level FlightAware
08:23AM 38.0540 20.6610 115° Southeast 530 610 37,000  Level FlightAware
08:24AM 38.0110 20.7740 116° Southeast 530 610 37,000  Level FlightAware
08:25AM 37.9810 20.8550 115° Southeast 530 610 37,000  Level FlightAware
08:25AM 37.9420 20.9560 116° Southeast 530 610 37,000  Level FlightAware
08:26AM 37.9050 21.0530 116° Southeast 530 610 37,000  Level FlightAware
08:26AM 37.8620 21.1650 116° Southeast 530 610 37,000  Level FlightAware
08:27AM 37.8310 21.2490 115° Southeast 531 611 37,000  Level FlightAware
08:27AM 37.7930 21.3470 116° Southeast 532 612 37,000  Level FlightAware
08:28AM 37.7550 21.4410 117° Southeast 532 612 37,000  Level FlightAware
08:29AM 37.7110 21.5560 116° Southeast 532 612 37,000  Level FlightAware
08:29AM 37.6790 21.6400 116° Southeast 533 613 37,000  Level FlightAware
08:30AM 37.6410 21.7370 116° Southeast 533 613 37,000  Level FlightAware
08:30AM 37.6050 21.8290 116° Southeast 534 615 37,000  Level FlightAware
08:31AM 37.5590 21.9470 116° Southeast 535 616 37,000  Level FlightAware
08:32AM 37.5260 22.0300 117° Southeast 535 616 37,000  Level FlightAware
08:32AM 37.4870 22.1320 116° Southeast 535 616 37,000  Level FlightAware
08:33AM 37.4520 22.2180 117° Southeast 533 613 37,000  Level FlightAware
08:33AM 37.4020 22.3500 115° Southeast 539 620 37,000  Level FlightAware
08:34AM 37.3700 22.4550 111° Southeast 540 621 37,000  Level FlightAware
08:35AM 37.3450 22.5410 110° East 540 621 37,000  Level FlightAware
08:35AM 37.3080 22.6710 110° East 540 621 37,000  Level FlightAware
08:36AM 37.2720 22.7920 110° East 539 620 37,000  Level FlightAware
08:36AM 37.2450 22.8840 110° East 539 620 37,000  Level FlightAware
08:37AM 37.2150 22.9840 111° Southeast 539 620 37,000  Level FlightAware
08:38AM 37.1850 23.0870 110° East 540 621 37,000  Level FlightAware
08:38AM 37.1540 23.1900 111° Southeast 539 620 37,000  Level FlightAware
08:39AM 37.1230 23.2920 111° Southeast 538 619 37,000  Level FlightAware
08:39AM 37.0960 23.3830 110° East 538 619 37,000  Level FlightAware
08:40AM 37.0570 23.5120 111° Southeast 541 623 37,000  Level FlightAware
08:41AM 37.0250 23.6180 111° Southeast 541 623 37,000  Level FlightAware
08:41AM 36.9980 23.7050 111° Southeast 541 623 37,000  Level FlightAware
08:42AM 36.9670 23.8110 110° East 542 624 37,000  Level FlightAware
08:42AM 36.9340 23.9160 111° Southeast 542 624 37,000  Level FlightAware
08:43AM 36.9010 24.0220 111° Southeast 543 625 37,000  Level FlightAware
08:44AM 36.8700 24.1240 111° Southeast 543 625 37,000  Level FlightAware
08:44AM 36.8370 24.2320 111° Southeast 544 626 37,000  Level FlightAware
08:45AM 36.8080 24.3260 111° Southeast 544 626 37,000  Level FlightAware
08:45AM 36.7760 24.4280 111° Southeast 543 625 37,000  Level FlightAware
08:46AM 36.7430 24.5330 111° Southeast 543 625 37,000  Level FlightAware
08:46AM 36.7110 24.6250 113° Southeast 542 624 37,000  Level FlightAware
08:47AM 36.6720 24.7290 115° Southeast 541 623 37,000  Level FlightAware
08:48AM 36.6350 24.8280 115° Southeast 541 623 37,000  Level FlightAware
08:48AM 36.5970 24.9330 114° Southeast 540 621 37,000  Level FlightAware
08:49AM 36.5630 25.0240 115° Southeast 541 623 37,000  Level FlightAware
08:49AM 36.5270 25.1230 114° Southeast 541 623 37,000  Level FlightAware
08:50AM 36.4880 25.2270 115° Southeast 542 624 37,000  Level FlightAware
08:51AM 36.4520 25.3270 114° Southeast 543 625 37,000  Level FlightAware
08:51AM 36.4180 25.4170 115° Southeast 544 626 37,000  Level FlightAware
08:52AM 36.3780 25.5250 115° Southeast 544 626 37,000  Level FlightAware
08:52AM 36.3440 25.6160 115° Southeast 545 627 37,000  Level FlightAware
08:53AM 36.3080 25.7150 114° Southeast 546 628 37,000  Level FlightAware
08:53AM 36.2670 25.8230 115° Southeast 546 628 37,000  Level FlightAware
08:54AM 36.2290 25.9250 115° Southeast 547 629 37,000  Level FlightAware
08:55AM 36.1920 26.0220 115° Southeast 548 631 37,000  Level FlightAware
08:55AM 36.1530 26.1210 116° Southeast 548 631 37,000  Level FlightAware
08:56AM 36.1210 26.2060 115° Southeast 549 632 37,000  Level FlightAware
08:56AM 36.0820 26.3120 114° Southeast 550 633 37,000  Level FlightAware
08:57AM 36.0380 26.4250 116° Southeast 551 634 37,000  Level FlightAware
08:58AM 36.0040 26.5130 116° Southeast 551 634 37,000  Level FlightAware
08:58AM 35.9640 26.6180 115° Southeast 552 635 37,000  Level FlightAware
08:59AM 35.9240 26.7210 116° Southeast 552 635 37,000  Level FlightAware
08:59AM 35.8920 26.8030 116° Southeast 553 636 37,000  Level FlightAware
09:00AM 35.8550 26.9010 115° Southeast 553 636 37,000  Level FlightAware
09:00AM 35.8150 27.0030 116° Southeast 553 636 37,000  Level FlightAware
09:01AM 35.7800 27.0950 115° Southeast 553 636 37,000  Level FlightAware
09:02AM 35.7470 27.1830 115° Southeast 553 636 37,000  Level FlightAware
09:02AM 35.7130 27.2700 116° Southeast 553 636 37,000  Level FlightAware
09:03AM 35.6790 27.3600 115° Southeast 553 636 37,000  Level FlightAware
09:03AM 35.6460 27.4470 115° Southeast 553 636 37,000  Level FlightAware
09:04AM 35.5610 27.6450 118° Southeast 548 631 37,000  Level FlightAware
09:05AM 35.5260 27.7330 116° Southeast 548 631 37,000  Level FlightAware
09:05AM 35.4920 27.8180 116° Southeast 548 631 37,000  Level FlightAware
09:06AM 35.4580 27.9040 116° Southeast 548 631 37,000  Level FlightAware
09:07AM 35.4240 27.9900 116° Southeast 548 631 37,000  Level FlightAware
09:07AM 35.3560 28.1510 117° Southeast 548 631 37,000  Level FlightAware
09:08AM 35.3190 28.2430 116° Southeast 547 629 37,000  Level FlightAware
09:08AM 35.2810 28.3370 116° Southeast 548 631 37,000  Level FlightAware
09:09AM 35.2380 28.4400 117° Southeast 547 629 37,000  Level FlightAware
09:10AM 35.1970 28.5400 117° Southeast 547 629 37,000  Level FlightAware
09:10AM 35.1560 28.6430 116° Southeast 547 629 37,000  Level FlightAware
09:11AM 35.1120 28.7490 117° Southeast 546 628 37,000  Level FlightAware
09:11AM 35.0760 28.8350 117° Southeast 546 628 37,000  Level FlightAware
09:12AM 35.0230 28.9610 117° Southeast 544 626 37,000  Level FlightAware
09:13AM 34.9870 29.0460 117° Southeast 543 625 37,000  Level FlightAware
09:14AM 34.9320 29.1830 116° Southeast 543 625 37,000  Level FlightAware
09:14AM 34.8770 29.3090 118° Southeast 543 625 37,000  Level FlightAware
09:15AM 34.8430 29.3910 117° Southeast 542 624 37,000  Level FlightAware
09:15AM 34.7980 29.4980 117° Southeast 542 624 37,000  Level FlightAware
09:16AM 34.7560 29.5960 118° Southeast 542 624 37,000  Level FlightAware
09:17AM 34.7150 29.6910 118° Southeast 542 624 37,000  Level FlightAware
09:17AM 34.6740 29.7890 117° Southeast 543 625 37,000  Level FlightAware
09:18AM 34.6200 29.9170 117° Southeast 543 625 37,000  Level FlightAware
09:19AM 34.5870 30.0010 115° Southeast 543 625 37,000  Level FlightAware
09:19AM 34.5220 30.1300 121° Southeast 546 628 37,000  Level FlightAware
09:20AM 34.4780 30.2220 120° Southeast 546 628 37,000  Level FlightAware
09:20AM 34.4330 30.3180 120° Southeast 546 628 37,000  Level FlightAware
09:21AM 34.3910 30.4050 120° Southeast 546 628 37,000  Level FlightAware
09:22AM 34.3430 30.5050 120° Southeast 546 628 37,000  Level FlightAware
09:22AM 34.3000 30.5920 121° Southeast 546 628 37,000  Level FlightAware
09:23AM 34.2490 30.6970 120° Southeast 545 627 37,000  Level FlightAware
09:24AM 34.1910 30.8180 120° Southeast 544 626 37,000  Level FlightAware
09:24AM 34.1450 30.9120 121° Southeast 543 625 37,000  Level FlightAware
09:25AM 34.1060 30.9930 120° Southeast 542 624 37,000  Level FlightAware
09:25AM 34.0620 31.0810 121° Southeast 542 624 37,000  Level FlightAware
09:26AM 34.0120 31.1830 121° Southeast 541 623 37,000  Level FlightAware
09:26AM 33.9770 31.2530 121° Southeast 540 621 37,000  Level FlightAware
09:27AM 33.9190 31.3710 121° Southeast 539 620 37,000  Level FlightAware
09:28AM 33.8820 31.4460 121° Southeast 538 619 37,000  Level FlightAware
09:28AM 33.8370 31.5360 121° Southeast 536 617 37,000  Level FlightAware
09:29AM 33.7920 31.6280 120° Southeast 536 617 37,000  Level FlightAware
09:29AM 33.7480 31.7150 121° Southeast 537 618 37,000  Level FlightAware
09:30AM 33.7020 31.8070 121° Southeast 538 619 37,000  Level FlightAware
09:31AM 33.6580 31.8940 121° Southeast 536 617 37,000  Level FlightAware
09:31AM 33.6120 31.9860 121° Southeast 535 616 37,000  Level FlightAware
09:32AM 33.5690 32.0720 121° Southeast 534 615 37,000  Level FlightAware
09:32AM 33.5270 32.1560 121° Southeast 534 615 37,000  Level FlightAware
09:33AM 33.4780 32.2520 121° Southeast 533 613 37,000  Level FlightAware
09:33AM 33.4420 32.3230 121° Southeast 533 613 37,000  Level FlightAware
09:34AM 33.3880 32.4280 122° Southeast 532 612 37,000  Level FlightAware
09:35AM 33.3380 32.5260 121° Southeast 531 611 37,000 -120 Level FlightAware
09:36AM 33.2740 32.6520 121° Southeast 530 610 36,900 -840 Descending FlightAware
09:36AM 33.2310 32.7360 121° Southeast 525 604 35,900 -2,580 Descending FlightAware
09:37AM 33.1900 32.8160 121° Southeast 533 613 33,900 -3,900 Descending FlightAware
09:37AM 33.1380 32.9150 122° Southeast 539 620 31,300 -3,420 Descending FlightAware
09:38AM 33.0800 33.0280 121° Southeast 552 635 29,400 -2,700 Descending FlightAware
09:39AM 33.0310 33.1240 121° Southeast 549 632 27,800 -2,580 Descending FlightAware
09:39AM 32.9890 33.2050 122° Southeast 534 615 26,500 -2,460 Descending FlightAware
09:40AM 32.9410 33.2970 122° Southeast 534 615 25,000 -2,520 Descending FlightAware
09:40AM 32.8950 33.3850 122° Southeast 514 592 23,500 -2,460 Descending FlightAware
09:41AM 32.8490 33.4710 122° Southeast 508 585 22,100 -2,340 Descending FlightAware
09:42AM 32.8060 33.5530 122° Southeast 496 571 20,700 -2,340 Descending FlightAware
09:42AM 32.7670 33.6260 122° Southeast 482 555 19,500 -2,280 Descending FlightAware
09:43AM 32.7290 33.6990 122° Southeast 465 535 18,300 -2,220 Descending FlightAware
09:43AM 32.6850 33.7830 122° Southeast 455 524 16,900 -2,100 Descending FlightAware
09:44AM 32.6460 33.8560 122° Southeast 442 509 15,700 -2,040 Descending FlightAware
09:44AM 32.6080 33.9290 122° Southeast 429 494 14,500 -1,980 Descending FlightAware
09:45AM 32.5770 33.9880 122° Southeast 413 475 13,600 -1,860 Descending FlightAware
09:46AM 32.5400 34.0590 122° Southeast 392 451 12,400 -1,860 Descending FlightAware
09:46AM 32.5030 34.1260 123° Southeast 377 434 11,300 -1,620 Descending FlightAware
09:47AM 32.4700 34.1770 127° Southeast 357 411 10,600 -780 Descending FlightAware
09:47AM 32.4290 34.2260 135° Southeast 320 368 10,400 -360 Descending FlightAware
09:48AM 32.3950 34.2670 134° Southeast 294 338 10,200 -720 Descending FlightAware
09:48AM 32.3790 34.2850 136° Southeast 289 333 9,800 -1,380 Descending FlightAware
09:49AM 32.3570 34.3110 135° Southeast 289 333 9,300 -1,200 Descending FlightAware
09:49AM 32.3310 34.3420 135° Southeast 283 326 8,800 -1,020 Descending FlightAware
09:50AM 32.3100 34.3670 135° Southeast 281 323 8,400 -900 Descending FlightAware
09:50AM 32.2970 34.3820 136° Southeast 281 323 8,200 -900 Descending FlightAware
09:50AM 32.2710 34.4110 137° Southeast 278 320 7,800 -960 Descending FlightAware
09:51AM 32.2530 34.4320 135° Southeast 275 316 7,500 -900 Descending FlightAware
09:51AM 32.2360 34.4540 132° Southeast 275 316 7,200 -660 Descending FlightAware
09:51AM 32.2220 34.4740 130° Southeast 276 318 7,100 -480 Descending FlightAware
09:52AM 32.2070 34.5020 122° Southeast 274 315 6,900 -600 Descending FlightAware
09:52AM 32.1940 34.5290 120° Southeast 272 313 6,700 -540 Descending FlightAware
09:52AM 32.1790 34.5570 122° Southeast 271 312 6,500 -540 Descending FlightAware
09:53AM 32.1630 34.5870 122° Southeast 272 313 6,300 -660 Descending FlightAware
09:53AM 32.1480 34.6130 124° Southeast 271 312 6,100 -480 Descending FlightAware
09:53AM 32.1360 34.6360 122° Southeast 272 313 6,000 -540 Descending FlightAware
09:54AM 32.1190 34.6680 122° Southeast 261 300 5,700 -960 Descending FlightAware
09:54AM 32.1070 34.6920 121° Southeast 259 298 5,300 -840 Descending FlightAware
09:54AM 32.0910 34.7200 124° Southeast 265 305 5,100 -120 Descending FlightAware
09:55AM 32.0690 34.7610 122° Southeast 254 292 5,200  Climbing FlightAware
09:55AM 32.0520 34.7840 131° Southeast 238 274 5,100 -420 Descending FlightAware
09:56AM 32.0220 34.8190 135° Southeast 234 269 4,800 -420 Descending FlightAware
09:56AM 32.0040 34.8390 137° Southeast 234 269 4,700 -780 Descending FlightAware
09:57AM 31.9910 34.8540 136° Southeast 198 228 4,300 -540 Descending FlightAware
09:57AM 31.9760 34.8720 134° Southeast 198 228 4,300 -1,620 Level FlightAware
09:58AM 31.9910 34.8540 314° West 189 217 3,100 -2,340 Descending FlightAware
09:58AM 31.9780 34.9170 104° East 174 200 2,800 -840 Descending FlightAware
09:58AM 31.9810 34.9320 77° East 169 194 2,600 -840 Descending FlightAware
09:59AM 31.9850 34.9490 74° East 173 199 2,300 -900 Descending FlightAware
09:59AM 31.9960 34.9630 47° Northeast 165 190 2,000 -1,020 Descending FlightAware
09:59AM 32.0030 34.9640 North 162 186 1,800 -840 Descending FlightAware
09:59AM 32.0160 34.9610 349° North 153 176 1,600 -720 Descending FlightAware
09:59AM 32.0200 34.9590 337° Northwest 152 175 1,500 -240 Descending FlightAware
10:00AM 32.0350 34.9530 341° North 152 175 1,500  Level FlightAware